sensor_id;sensor_type;location;lat;lon;timestamp;P1;durP1;ratioP1;P2;durP2;ratioP2
22549;SDS011;11441;57.164;-2.120;2023-02-04T00:00:21;2.95;;;0.80;;
22549;SDS011;11441;57.164;-2.120;2023-02-04T00:02:49;3.90;;;0.88;;
22549;SDS011;11441;57.164;-2.120;2023-02-04T00:05:16;4.32;;;1.02;;
22549;SDS011;11441;57.164;-2.120;2023-02-04T00:07:44;4.78;;;1.40;;
22549;SDS011;11441;57.164;-2.120;2023-02-04T00:10:11;3.70;;;1.25;;
22549;SDS011;11441;57.164;-2.120;2023-02-04T00:12:37;3.90;;;0.82;;
22549;SDS011;11441;57.164;-2.120;2023-02-04T00:15:04;4.63;;;1.38;;
22549;SDS011;11441;57.164;-2.120;2023-02-04T00:17:32;3.00;;;0.90;;
22549;SDS011;11441;57.164;-2.120;2023-02-04T00:19:58;3.33;;;0.80;;
22549;SDS011;11441;57.164;-2.120;2023-02-04T00:22:25;5.65;;;0.93;;
22549;SDS011;11441;57.164;-2.120;2023-02-04T00:24:54;2.25;;;0.88;;
22549;SDS011;11441;57.164;-2.120;2023-02-04T00:27:21;4.97;;;1.50;;
22549;SDS011;11441;57.164;-2.120;2023-02-04T00:29:48;3.65;;;1.00;;
22549;SDS011;11441;57.164;-2.120;2023-02-04T00:32:15;4.72;;;1.30;;
22549;SDS011;11441;57.164;-2.120;2023-02-04T00:34:42;7.72;;;1.05;;
22549;SDS011;11441;57.164;-2.120;2023-02-04T00:37:08;3.28;;;0.75;;
22549;SDS011;11441;57.164;-2.120;2023-02-04T00:39:36;2.08;;;0.55;;
22549;SDS011;11441;57.164;-2.120;2023-02-04T00:42:04;5.18;;;1.20;;
22549;SDS011;11441;57.164;-2.120;2023-02-04T00:44:34;3.55;;;0.95;;
22549;SDS011;11441;57.164;-2.120;2023-02-04T00:47:02;4.53;;;1.15;;
22549;SDS011;11441;57.164;-2.120;2023-02-04T00:49:47;3.20;;;1.10;;
22549;SDS011;11441;57.164;-2.120;2023-02-04T00:52:14;2.63;;;0.68;;
22549;SDS011;11441;57.164;-2.120;2023-02-04T00:54:41;3.67;;;0.80;;
22549;SDS011;11441;57.164;-2.120;2023-02-04T00:57:08;2.72;;;1.20;;
22549;SDS011;11441;57.164;-2.120;2023-02-04T00:59:34;2.60;;;0.75;;
22549;SDS011;11441;57.164;-2.120;2023-02-04T01:02:01;4.00;;;0.80;;
22549;SDS011;11441;57.164;-2.120;2023-02-04T01:04:28;6.95;;;1.13;;
22549;SDS011;11441;57.164;-2.120;2023-02-04T01:06:55;2.33;;;0.80;;
22549;SDS011;11441;57.164;-2.120;2023-02-04T01:09:22;4.47;;;0.90;;
22549;SDS011;11441;57.164;-2.120;2023-02-04T01:11:49;5.28;;;0.77;;
22549;SDS011;11441;57.164;-2.120;2023-02-04T01:14:16;3.58;;;0.80;;
22549;SDS011;11441;57.164;-2.120;2023-02-04T01:16:43;3.00;;;0.52;;
22549;SDS011;11441;57.164;-2.120;2023-02-04T01:19:10;4.70;;;1.10;;
22549;SDS011;11441;57.164;-2.120;2023-02-04T01:21:37;4.53;;;1.13;;
22549;SDS011;11441;57.164;-2.120;2023-02-04T01:24:06;3.28;;;0.82;;
22549;SDS011;11441;57.164;-2.120;2023-02-04T01:26:53;5.25;;;0.70;;
22549;SDS011;11441;57.164;-2.120;2023-02-04T01:29:20;3.65;;;0.75;;
22549;SDS011;11441;57.164;-2.120;2023-02-04T01:31:46;4.70;;;1.13;;
22549;SDS011;11441;57.164;-2.120;2023-02-04T01:34:32;6.88;;;1.23;;
22549;SDS011;11441;57.164;-2.120;2023-02-04T01:36:58;2.80;;;0.73;;
22549;SDS011;11441;57.164;-2.120;2023-02-04T01:39:25;2.70;;;0.80;;
22549;SDS011;11441;57.164;-2.120;2023-02-04T01:41:52;2.80;;;0.65;;
22549;SDS011;11441;57.164;-2.120;2023-02-04T01:44:19;2.20;;;0.82;;
22549;SDS011;11441;57.164;-2.120;2023-02-04T01:46:46;2.40;;;0.70;;
22549;SDS011;11441;57.164;-2.120;2023-02-04T01:49:13;4.75;;;0.98;;
22549;SDS011;11441;57.164;-2.120;2023-02-04T01:51:39;3.70;;;1.05;;
22549;SDS011;11441;57.164;-2.120;2023-02-04T01:54:08;8.07;;;1.25;;
22549;SDS011;11441;57.164;-2.120;2023-02-04T01:56:37;2.92;;;0.82;;
22549;SDS011;11441;57.164;-2.120;2023-02-04T01:59:09;5.07;;;1.00;;
22549;SDS011;11441;57.164;-2.120;2023-02-04T02:04:16;4.30;;;0.88;;
22549;SDS011;11441;57.164;-2.120;2023-02-04T02:06:56;4.65;;;1.17;;
22549;SDS011;11441;57.164;-2.120;2023-02-04T02:09:27;4.70;;;1.05;;
22549;SDS011;11441;57.164;-2.120;2023-02-04T02:11:56;8.13;;;1.30;;
22549;SDS011;11441;57.164;-2.120;2023-02-04T02:14:24;6.53;;;1.50;;
22549;SDS011;11441;57.164;-2.120;2023-02-04T02:19:54;1.73;;;0.50;;
22549;SDS011;11441;57.164;-2.120;2023-02-04T02:22:27;2.83;;;1.23;;
22549;SDS011;11441;57.164;-2.120;2023-02-04T02:24:58;4.60;;;0.80;;
22549;SDS011;11441;57.164;-2.120;2023-02-04T02:27:25;3.00;;;0.95;;
22549;SDS011;11441;57.164;-2.120;2023-02-04T02:29:52;4.00;;;1.15;;
22549;SDS011;11441;57.164;-2.120;2023-02-04T02:32:18;5.68;;;0.98;;
22549;SDS011;11441;57.164;-2.120;2023-02-04T02:34:45;8.82;;;1.25;;
22549;SDS011;11441;57.164;-2.120;2023-02-04T02:37:12;4.88;;;1.00;;
22549;SDS011;11441;57.164;-2.120;2023-02-04T02:39:39;2.55;;;0.80;;
22549;SDS011;11441;57.164;-2.120;2023-02-04T02:42:11;4.10;;;0.90;;
22549;SDS011;11441;57.164;-2.120;2023-02-04T02:44:43;3.67;;;1.02;;
22549;SDS011;11441;57.164;-2.120;2023-02-04T02:47:12;6.72;;;1.15;;
22549;SDS011;11441;57.164;-2.120;2023-02-04T02:49:58;2.05;;;0.80;;
22549;SDS011;11441;57.164;-2.120;2023-02-04T02:52:24;4.30;;;0.90;;
22549;SDS011;11441;57.164;-2.120;2023-02-04T02:55:11;5.07;;;0.90;;
22549;SDS011;11441;57.164;-2.120;2023-02-04T02:57:42;3.08;;;1.20;;
22549;SDS011;11441;57.164;-2.120;2023-02-04T03:00:15;2.13;;;0.93;;
22549;SDS011;11441;57.164;-2.120;2023-02-04T03:02:55;3.67;;;1.17;;
22549;SDS011;11441;57.164;-2.120;2023-02-04T03:05:49;3.72;;;0.90;;
22549;SDS011;11441;57.164;-2.120;2023-02-04T03:08:20;6.18;;;0.95;;
22549;SDS011;11441;57.164;-2.120;2023-02-04T03:10:48;5.53;;;1.02;;
22549;SDS011;11441;57.164;-2.120;2023-02-04T03:13:15;3.15;;;0.98;;
22549;SDS011;11441;57.164;-2.120;2023-02-04T03:15:43;4.25;;;0.77;;
22549;SDS011;11441;57.164;-2.120;2023-02-04T03:18:16;4.18;;;1.05;;
22549;SDS011;11441;57.164;-2.120;2023-02-04T03:21:04;4.70;;;0.88;;
22549;SDS011;11441;57.164;-2.120;2023-02-04T03:23:33;4.60;;;0.90;;
22549;SDS011;11441;57.164;-2.120;2023-02-04T03:26:02;5.05;;;0.80;;
22549;SDS011;11441;57.164;-2.120;2023-02-04T03:28:30;5.88;;;1.17;;
22549;SDS011;11441;57.164;-2.120;2023-02-04T03:30:57;5.13;;;0.95;;
22549;SDS011;11441;57.164;-2.120;2023-02-04T03:33:26;3.80;;;0.90;;
22549;SDS011;11441;57.164;-2.120;2023-02-04T03:36:12;3.88;;;1.08;;
22549;SDS011;11441;57.164;-2.120;2023-02-04T03:38:39;9.90;;;1.40;;
22549;SDS011;11441;57.164;-2.120;2023-02-04T03:41:06;3.50;;;1.02;;
22549;SDS011;11441;57.164;-2.120;2023-02-04T03:43:33;4.25;;;0.75;;
22549;SDS011;11441;57.164;-2.120;2023-02-04T03:46:00;4.93;;;1.10;;
22549;SDS011;11441;57.164;-2.120;2023-02-04T03:48:27;3.83;;;0.93;;
22549;SDS011;11441;57.164;-2.120;2023-02-04T03:50:54;6.03;;;1.50;;
22549;SDS011;11441;57.164;-2.120;2023-02-04T03:53:20;6.57;;;1.05;;
22549;SDS011;11441;57.164;-2.120;2023-02-04T03:55:47;3.42;;;0.85;;
22549;SDS011;11441;57.164;-2.120;2023-02-04T03:58:14;4.80;;;1.17;;
22549;SDS011;11441;57.164;-2.120;2023-02-04T04:00:40;5.10;;;0.93;;
22549;SDS011;11441;57.164;-2.120;2023-02-04T04:03:07;4.55;;;1.40;;
22549;SDS011;11441;57.164;-2.120;2023-02-04T04:05:34;2.15;;;0.60;;
22549;SDS011;11441;57.164;-2.120;2023-02-04T04:08:01;1.55;;;0.65;;
22549;SDS011;11441;57.164;-2.120;2023-02-04T04:10:28;3.10;;;0.75;;
22549;SDS011;11441;57.164;-2.120;2023-02-04T04:12:55;5.93;;;0.90;;
22549;SDS011;11441;57.164;-2.120;2023-02-04T04:15:22;3.58;;;0.80;;
22549;SDS011;11441;57.164;-2.120;2023-02-04T04:17:50;3.72;;;0.73;;
22549;SDS011;11441;57.164;-2.120;2023-02-04T04:20:17;4.22;;;0.93;;
22549;SDS011;11441;57.164;-2.120;2023-02-04T04:22:44;5.45;;;1.15;;
22549;SDS011;11441;57.164;-2.120;2023-02-04T04:25:11;4.05;;;1.02;;
22549;SDS011;11441;57.164;-2.120;2023-02-04T04:27:38;3.38;;;1.20;;
22549;SDS011;11441;57.164;-2.120;2023-02-04T04:30:05;7.85;;;0.90;;
22549;SDS011;11441;57.164;-2.120;2023-02-04T04:32:32;5.47;;;0.85;;
22549;SDS011;11441;57.164;-2.120;2023-02-04T04:35:17;5.30;;;0.60;;
22549;SDS011;11441;57.164;-2.120;2023-02-04T04:37:44;4.57;;;0.60;;
22549;SDS011;11441;57.164;-2.120;2023-02-04T04:40:11;4.25;;;0.85;;
22549;SDS011;11441;57.164;-2.120;2023-02-04T04:42:38;3.40;;;1.15;;
22549;SDS011;11441;57.164;-2.120;2023-02-04T04:45:06;2.90;;;0.60;;
22549;SDS011;11441;57.164;-2.120;2023-02-04T04:47:34;6.60;;;1.40;;
22549;SDS011;11441;57.164;-2.120;2023-02-04T04:50:01;4.25;;;0.98;;
22549;SDS011;11441;57.164;-2.120;2023-02-04T04:52:28;3.78;;;1.05;;
22549;SDS011;11441;57.164;-2.120;2023-02-04T04:54:55;3.85;;;1.00;;
22549;SDS011;11441;57.164;-2.120;2023-02-04T05:00:26;5.70;;;0.77;;
22549;SDS011;11441;57.164;-2.120;2023-02-04T05:02:53;4.82;;;0.73;;
22549;SDS011;11441;57.164;-2.120;2023-02-04T05:05:19;2.42;;;0.70;;
22549;SDS011;11441;57.164;-2.120;2023-02-04T05:07:46;5.30;;;0.60;;
22549;SDS011;11441;57.164;-2.120;2023-02-04T05:10:13;3.15;;;0.73;;
22549;SDS011;11441;57.164;-2.120;2023-02-04T05:12:40;3.92;;;0.90;;
22549;SDS011;11441;57.164;-2.120;2023-02-04T05:15:07;8.00;;;1.10;;
22549;SDS011;11441;57.164;-2.120;2023-02-04T05:17:34;3.05;;;0.82;;
22549;SDS011;11441;57.164;-2.120;2023-02-04T05:20:01;2.35;;;0.77;;
22549;SDS011;11441;57.164;-2.120;2023-02-04T05:22:28;2.55;;;0.85;;
22549;SDS011;11441;57.164;-2.120;2023-02-04T05:24:54;4.53;;;1.15;;
22549;SDS011;11441;57.164;-2.120;2023-02-04T05:27:21;4.47;;;0.80;;
22549;SDS011;11441;57.164;-2.120;2023-02-04T05:29:48;7.28;;;0.75;;
22549;SDS011;11441;57.164;-2.120;2023-02-04T05:32:15;2.53;;;1.10;;
22549;SDS011;11441;57.164;-2.120;2023-02-04T05:34:41;6.78;;;1.15;;
22549;SDS011;11441;57.164;-2.120;2023-02-04T05:37:08;1.70;;;0.70;;
22549;SDS011;11441;57.164;-2.120;2023-02-04T05:39:35;5.65;;;1.20;;
22549;SDS011;11441;57.164;-2.120;2023-02-04T05:42:02;3.42;;;0.70;;
22549;SDS011;11441;57.164;-2.120;2023-02-04T05:44:28;5.65;;;1.55;;
22549;SDS011;11441;57.164;-2.120;2023-02-04T05:46:55;3.47;;;1.58;;
22549;SDS011;11441;57.164;-2.120;2023-02-04T05:49:22;4.53;;;1.10;;
22549;SDS011;11441;57.164;-2.120;2023-02-04T05:51:50;4.10;;;0.90;;
22549;SDS011;11441;57.164;-2.120;2023-02-04T05:54:17;3.75;;;1.00;;
22549;SDS011;11441;57.164;-2.120;2023-02-04T05:56:46;3.58;;;0.75;;
22549;SDS011;11441;57.164;-2.120;2023-02-04T05:59:13;5.63;;;1.45;;
22549;SDS011;11441;57.164;-2.120;2023-02-04T06:01:39;2.72;;;0.90;;
22549;SDS011;11441;57.164;-2.120;2023-02-04T06:04:06;2.53;;;0.88;;
22549;SDS011;11441;57.164;-2.120;2023-02-04T06:06:33;3.90;;;1.13;;
22549;SDS011;11441;57.164;-2.120;2023-02-04T06:09:00;3.58;;;1.23;;
22549;SDS011;11441;57.164;-2.120;2023-02-04T06:11:27;5.45;;;0.88;;
22549;SDS011;11441;57.164;-2.120;2023-02-04T06:13:54;2.38;;;1.27;;
22549;SDS011;11441;57.164;-2.120;2023-02-04T06:16:21;5.30;;;0.77;;
22549;SDS011;11441;57.164;-2.120;2023-02-04T06:18:47;0.90;;;0.75;;
22549;SDS011;11441;57.164;-2.120;2023-02-04T06:21:14;5.32;;;0.90;;
22549;SDS011;11441;57.164;-2.120;2023-02-04T06:23:41;3.30;;;0.88;;
22549;SDS011;11441;57.164;-2.120;2023-02-04T06:26:08;2.88;;;0.65;;
22549;SDS011;11441;57.164;-2.120;2023-02-04T06:28:35;5.40;;;0.93;;
22549;SDS011;11441;57.164;-2.120;2023-02-04T06:31:02;4.90;;;1.08;;
22549;SDS011;11441;57.164;-2.120;2023-02-04T06:33:29;3.83;;;1.40;;
22549;SDS011;11441;57.164;-2.120;2023-02-04T06:35:55;0.93;;;0.75;;
22549;SDS011;11441;57.164;-2.120;2023-02-04T06:38:22;3.80;;;0.75;;
22549;SDS011;11441;57.164;-2.120;2023-02-04T06:40:49;5.55;;;0.80;;
22549;SDS011;11441;57.164;-2.120;2023-02-04T06:43:19;1.90;;;0.82;;
22549;SDS011;11441;57.164;-2.120;2023-02-04T06:45:47;3.15;;;0.98;;
22549;SDS011;11441;57.164;-2.120;2023-02-04T06:48:14;12.00;;;1.35;;
22549;SDS011;11441;57.164;-2.120;2023-02-04T06:50:40;7.28;;;0.82;;
22549;SDS011;11441;57.164;-2.120;2023-02-04T06:53:08;3.97;;;1.17;;
22549;SDS011;11441;57.164;-2.120;2023-02-04T06:55:34;2.33;;;0.90;;
22549;SDS011;11441;57.164;-2.120;2023-02-04T06:58:01;2.08;;;1.00;;
22549;SDS011;11441;57.164;-2.120;2023-02-04T07:00:28;6.35;;;1.15;;
22549;SDS011;11441;57.164;-2.120;2023-02-04T07:02:57;6.47;;;1.38;;
22549;SDS011;11441;57.164;-2.120;2023-02-04T07:05:25;2.47;;;0.85;;
22549;SDS011;11441;57.164;-2.120;2023-02-04T07:07:51;3.20;;;0.80;;
22549;SDS011;11441;57.164;-2.120;2023-02-04T07:10:18;4.80;;;1.00;;
22549;SDS011;11441;57.164;-2.120;2023-02-04T07:12:48;2.35;;;0.80;;
22549;SDS011;11441;57.164;-2.120;2023-02-04T07:15:33;8.15;;;0.95;;
22549;SDS011;11441;57.164;-2.120;2023-02-04T07:18:00;4.95;;;1.25;;
22549;SDS011;11441;57.164;-2.120;2023-02-04T07:20:44;2.90;;;0.68;;
22549;SDS011;11441;57.164;-2.120;2023-02-04T07:25:57;3.95;;;0.82;;
22549;SDS011;11441;57.164;-2.120;2023-02-04T07:28:24;4.03;;;0.90;;
22549;SDS011;11441;57.164;-2.120;2023-02-04T07:30:51;3.67;;;0.80;;
22549;SDS011;11441;57.164;-2.120;2023-02-04T07:33:18;4.10;;;1.08;;
22549;SDS011;11441;57.164;-2.120;2023-02-04T07:35:45;4.45;;;1.67;;
22549;SDS011;11441;57.164;-2.120;2023-02-04T07:38:12;5.40;;;1.17;;
22549;SDS011;11441;57.164;-2.120;2023-02-04T07:40:38;5.97;;;0.90;;
22549;SDS011;11441;57.164;-2.120;2023-02-04T07:43:05;5.13;;;1.63;;
22549;SDS011;11441;57.164;-2.120;2023-02-04T07:45:51;5.75;;;1.50;;
22549;SDS011;11441;57.164;-2.120;2023-02-04T07:48:36;6.90;;;1.60;;
22549;SDS011;11441;57.164;-2.120;2023-02-04T07:51:03;3.50;;;1.00;;
22549;SDS011;11441;57.164;-2.120;2023-02-04T07:53:30;6.10;;;1.25;;
22549;SDS011;11441;57.164;-2.120;2023-02-04T07:55:58;4.78;;;1.10;;
22549;SDS011;11441;57.164;-2.120;2023-02-04T07:58:25;4.68;;;1.30;;
22549;SDS011;11441;57.164;-2.120;2023-02-04T08:00:52;6.30;;;1.60;;
22549;SDS011;11441;57.164;-2.120;2023-02-04T08:03:19;10.77;;;1.73;;
22549;SDS011;11441;57.164;-2.120;2023-02-04T08:05:45;5.28;;;1.70;;
22549;SDS011;11441;57.164;-2.120;2023-02-04T08:08:12;3.40;;;1.42;;
22549;SDS011;11441;57.164;-2.120;2023-02-04T08:10:39;3.88;;;1.50;;
22549;SDS011;11441;57.164;-2.120;2023-02-04T08:13:06;3.80;;;0.88;;
22549;SDS011;11441;57.164;-2.120;2023-02-04T08:15:33;6.50;;;1.40;;
22549;SDS011;11441;57.164;-2.120;2023-02-04T08:18:18;4.43;;;1.48;;
22549;SDS011;11441;57.164;-2.120;2023-02-04T08:20:45;7.75;;;1.65;;
22549;SDS011;11441;57.164;-2.120;2023-02-04T08:23:12;5.97;;;1.75;;
22549;SDS011;11441;57.164;-2.120;2023-02-04T08:25:39;4.40;;;1.13;;
22549;SDS011;11441;57.164;-2.120;2023-02-04T08:28:06;5.53;;;2.22;;
22549;SDS011;11441;57.164;-2.120;2023-02-04T08:30:33;4.95;;;2.75;;
22549;SDS011;11441;57.164;-2.120;2023-02-04T08:33:00;4.38;;;2.88;;
22549;SDS011;11441;57.164;-2.120;2023-02-04T08:35:27;7.72;;;3.40;;
22549;SDS011;11441;57.164;-2.120;2023-02-04T08:37:53;6.55;;;3.13;;
22549;SDS011;11441;57.164;-2.120;2023-02-04T08:40:20;5.18;;;3.05;;
22549;SDS011;11441;57.164;-2.120;2023-02-04T08:42:47;6.30;;;3.00;;
22549;SDS011;11441;57.164;-2.120;2023-02-04T08:45:14;5.80;;;3.05;;
22549;SDS011;11441;57.164;-2.120;2023-02-04T08:47:41;3.80;;;3.20;;
22549;SDS011;11441;57.164;-2.120;2023-02-04T08:50:08;8.00;;;3.67;;
22549;SDS011;11441;57.164;-2.120;2023-02-04T08:52:36;6.25;;;2.83;;
22549;SDS011;11441;57.164;-2.120;2023-02-04T08:55:03;9.65;;;3.50;;
22549;SDS011;11441;57.164;-2.120;2023-02-04T08:57:30;7.18;;;3.67;;
22549;SDS011;11441;57.164;-2.120;2023-02-04T08:59:57;5.18;;;3.85;;
22549;SDS011;11441;57.164;-2.120;2023-02-04T09:02:24;6.80;;;3.42;;
22549;SDS011;11441;57.164;-2.120;2023-02-04T09:04:51;3.83;;;2.88;;
22549;SDS011;11441;57.164;-2.120;2023-02-04T09:07:17;4.25;;;2.38;;
22549;SDS011;11441;57.164;-2.120;2023-02-04T09:09:44;7.45;;;3.20;;
22549;SDS011;11441;57.164;-2.120;2023-02-04T09:12:11;2.85;;;2.65;;
22549;SDS011;11441;57.164;-2.120;2023-02-04T09:14:38;2.60;;;2.40;;
22549;SDS011;11441;57.164;-2.120;2023-02-04T09:17:04;4.35;;;2.42;;
22549;SDS011;11441;57.164;-2.120;2023-02-04T09:19:32;4.57;;;2.28;;
22549;SDS011;11441;57.164;-2.120;2023-02-04T09:21:59;7.97;;;2.30;;
22549;SDS011;11441;57.164;-2.120;2023-02-04T09:24:26;5.38;;;2.00;;
22549;SDS011;11441;57.164;-2.120;2023-02-04T09:27:11;3.55;;;1.92;;
22549;SDS011;11441;57.164;-2.120;2023-02-04T09:29:38;2.30;;;1.83;;
22549;SDS011;11441;57.164;-2.120;2023-02-04T09:32:05;2.25;;;2.05;;
22549;SDS011;11441;57.164;-2.120;2023-02-04T09:34:49;3.08;;;2.00;;
22549;SDS011;11441;57.164;-2.120;2023-02-04T09:37:16;2.33;;;1.90;;
22549;SDS011;11441;57.164;-2.120;2023-02-04T09:39:43;6.18;;;1.95;;
22549;SDS011;11441;57.164;-2.120;2023-02-04T09:42:11;3.28;;;1.42;;
22549;SDS011;11441;57.164;-2.120;2023-02-04T09:44:40;1.80;;;1.35;;
22549;SDS011;11441;57.164;-2.120;2023-02-04T09:47:08;3.40;;;2.33;;
22549;SDS011;11441;57.164;-2.120;2023-02-04T09:49:37;3.55;;;1.65;;
22549;SDS011;11441;57.164;-2.120;2023-02-04T09:52:05;1.42;;;1.08;;
22549;SDS011;11441;57.164;-2.120;2023-02-04T09:54:37;3.53;;;1.63;;
22549;SDS011;11441;57.164;-2.120;2023-02-04T09:57:23;1.85;;;1.17;;
22549;SDS011;11441;57.164;-2.120;2023-02-04T09:59:49;3.35;;;1.50;;
22549;SDS011;11441;57.164;-2.120;2023-02-04T10:02:22;2.28;;;1.20;;
22549;SDS011;11441;57.164;-2.120;2023-02-04T10:04:50;5.68;;;1.63;;
22549;SDS011;11441;57.164;-2.120;2023-02-04T10:07:20;2.10;;;1.05;;
22549;SDS011;11441;57.164;-2.120;2023-02-04T10:09:51;3.00;;;1.40;;
22549;SDS011;11441;57.164;-2.120;2023-02-04T10:12:19;2.15;;;1.45;;
22549;SDS011;11441;57.164;-2.120;2023-02-04T10:17:36;3.08;;;1.60;;
22549;SDS011;11441;57.164;-2.120;2023-02-04T10:20:03;3.28;;;1.30;;
22549;SDS011;11441;57.164;-2.120;2023-02-04T10:22:30;2.97;;;1.20;;
22549;SDS011;11441;57.164;-2.120;2023-02-04T10:24:57;1.20;;;1.10;;
22549;SDS011;11441;57.164;-2.120;2023-02-04T10:27:23;2.03;;;1.38;;
22549;SDS011;11441;57.164;-2.120;2023-02-04T10:29:55;1.40;;;1.30;;
22549;SDS011;11441;57.164;-2.120;2023-02-04T10:32:28;1.80;;;1.70;;
22549;SDS011;11441;57.164;-2.120;2023-02-04T10:37:46;2.25;;;1.30;;
22549;SDS011;11441;57.164;-2.120;2023-02-04T10:40:26;1.65;;;1.00;;
22549;SDS011;11441;57.164;-2.120;2023-02-04T10:42:55;2.80;;;1.30;;
22549;SDS011;11441;57.164;-2.120;2023-02-04T10:45:26;2.13;;;0.98;;
22549;SDS011;11441;57.164;-2.120;2023-02-04T10:47:55;2.47;;;1.15;;
22549;SDS011;11441;57.164;-2.120;2023-02-04T10:50:23;1.38;;;1.05;;
22549;SDS011;11441;57.164;-2.120;2023-02-04T10:52:55;2.58;;;1.30;;
22549;SDS011;11441;57.164;-2.120;2023-02-04T10:55:43;3.80;;;1.27;;
22549;SDS011;11441;57.164;-2.120;2023-02-04T10:58:13;2.20;;;1.20;;
22549;SDS011;11441;57.164;-2.120;2023-02-04T11:00:43;0.60;;;0.60;;
22549;SDS011;11441;57.164;-2.120;2023-02-04T11:03:15;0.93;;;0.63;;
22549;SDS011;11441;57.164;-2.120;2023-02-04T11:05:46;1.38;;;1.23;;
22549;SDS011;11441;57.164;-2.120;2023-02-04T11:08:29;1.58;;;1.00;;
22549;SDS011;11441;57.164;-2.120;2023-02-04T11:11:05;1.75;;;0.80;;
22549;SDS011;11441;57.164;-2.120;2023-02-04T11:14:17;1.75;;;1.02;;
22549;SDS011;11441;57.164;-2.120;2023-02-04T11:16:31;1.45;;;0.73;;
22549;SDS011;11441;57.164;-2.120;2023-02-04T11:19:04;2.10;;;0.82;;
22549;SDS011;11441;57.164;-2.120;2023-02-04T11:24:03;4.43;;;1.02;;
22549;SDS011;11441;57.164;-2.120;2023-02-04T11:26:39;1.58;;;0.60;;
22549;SDS011;11441;57.164;-2.120;2023-02-04T11:29:30;3.60;;;1.00;;
22549;SDS011;11441;57.164;-2.120;2023-02-04T11:37:54;3.15;;;0.68;;
22549;SDS011;11441;57.164;-2.120;2023-02-04T11:42:54;3.65;;;1.00;;
22549;SDS011;11441;57.164;-2.120;2023-02-04T11:45:27;0.93;;;0.73;;
22549;SDS011;11441;57.164;-2.120;2023-02-04T11:50:58;3.28;;;1.63;;
22549;SDS011;11441;57.164;-2.120;2023-02-04T11:53:30;3.15;;;1.27;;
22549;SDS011;11441;57.164;-2.120;2023-02-04T11:55:58;3.08;;;1.10;;
22549;SDS011;11441;57.164;-2.120;2023-02-04T11:58:26;3.28;;;1.65;;
22549;SDS011;11441;57.164;-2.120;2023-02-04T12:00:56;2.70;;;1.10;;
22549;SDS011;11441;57.164;-2.120;2023-02-04T12:05:57;6.15;;;1.42;;
22549;SDS011;11441;57.164;-2.120;2023-02-04T12:08:34;6.75;;;1.50;;
22549;SDS011;11441;57.164;-2.120;2023-02-04T12:11:04;5.40;;;1.45;;
22549;SDS011;11441;57.164;-2.120;2023-02-04T12:13:32;5.43;;;1.45;;
22549;SDS011;11441;57.164;-2.120;2023-02-04T12:16:03;6.95;;;1.17;;
22549;SDS011;11441;57.164;-2.120;2023-02-04T12:18:32;9.02;;;3.28;;
22549;SDS011;11441;57.164;-2.120;2023-02-04T12:21:00;3.67;;;1.33;;
22549;SDS011;11441;57.164;-2.120;2023-02-04T12:23:28;6.05;;;0.90;;
22549;SDS011;11441;57.164;-2.120;2023-02-04T12:25:55;3.55;;;1.40;;
22549;SDS011;11441;57.164;-2.120;2023-02-04T12:28:22;6.05;;;1.05;;
22549;SDS011;11441;57.164;-2.120;2023-02-04T12:30:50;7.47;;;1.17;;
22549;SDS011;11441;57.164;-2.120;2023-02-04T12:33:17;6.53;;;1.70;;
22549;SDS011;11441;57.164;-2.120;2023-02-04T12:35:43;10.40;;;1.58;;
22549;SDS011;11441;57.164;-2.120;2023-02-04T12:38:29;4.00;;;1.20;;
22549;SDS011;11441;57.164;-2.120;2023-02-04T12:40:56;5.70;;;1.15;;
22549;SDS011;11441;57.164;-2.120;2023-02-04T12:43:22;5.95;;;1.45;;
22549;SDS011;11441;57.164;-2.120;2023-02-04T12:45:53;3.72;;;1.42;;
22549;SDS011;11441;57.164;-2.120;2023-02-04T12:48:20;5.53;;;1.30;;
22549;SDS011;11441;57.164;-2.120;2023-02-04T12:50:47;2.25;;;1.10;;
22549;SDS011;11441;57.164;-2.120;2023-02-04T12:53:14;2.83;;;0.80;;
22549;SDS011;11441;57.164;-2.120;2023-02-04T12:55:41;7.07;;;1.38;;
22549;SDS011;11441;57.164;-2.120;2023-02-04T12:58:08;6.80;;;1.58;;
22549;SDS011;11441;57.164;-2.120;2023-02-04T13:00:35;5.78;;;1.52;;
22549;SDS011;11441;57.164;-2.120;2023-02-04T13:03:02;6.28;;;1.90;;
22549;SDS011;11441;57.164;-2.120;2023-02-04T13:05:29;7.72;;;1.85;;
22549;SDS011;11441;57.164;-2.120;2023-02-04T13:07:57;11.10;;;1.67;;
22549;SDS011;11441;57.164;-2.120;2023-02-04T13:10:23;6.85;;;1.73;;
22549;SDS011;11441;57.164;-2.120;2023-02-04T13:13:09;9.48;;;2.03;;
22549;SDS011;11441;57.164;-2.120;2023-02-04T13:15:36;10.60;;;1.80;;
22549;SDS011;11441;57.164;-2.120;2023-02-04T13:18:03;8.75;;;1.77;;
22549;SDS011;11441;57.164;-2.120;2023-02-04T13:20:29;10.65;;;2.22;;
22549;SDS011;11441;57.164;-2.120;2023-02-04T13:22:56;7.40;;;1.88;;
22549;SDS011;11441;57.164;-2.120;2023-02-04T13:25:23;11.57;;;1.77;;
22549;SDS011;11441;57.164;-2.120;2023-02-04T13:27:50;4.60;;;1.50;;
22549;SDS011;11441;57.164;-2.120;2023-02-04T13:30:17;8.05;;;2.28;;
22549;SDS011;11441;57.164;-2.120;2023-02-04T13:32:44;5.90;;;1.45;;
22549;SDS011;11441;57.164;-2.120;2023-02-04T13:37:57;3.15;;;1.27;;
22549;SDS011;11441;57.164;-2.120;2023-02-04T13:40:23;2.83;;;0.88;;
22549;SDS011;11441;57.164;-2.120;2023-02-04T13:42:50;2.95;;;1.00;;
22549;SDS011;11441;57.164;-2.120;2023-02-04T13:45:17;1.88;;;1.17;;
22549;SDS011;11441;57.164;-2.120;2023-02-04T13:47:44;2.20;;;0.82;;
22549;SDS011;11441;57.164;-2.120;2023-02-04T13:50:14;3.92;;;1.30;;
22549;SDS011;11441;57.164;-2.120;2023-02-04T13:52:41;3.55;;;1.45;;
22549;SDS011;11441;57.164;-2.120;2023-02-04T13:55:08;7.13;;;1.60;;
22549;SDS011;11441;57.164;-2.120;2023-02-04T13:57:36;6.20;;;1.33;;
22549;SDS011;11441;57.164;-2.120;2023-02-04T14:00:06;6.65;;;1.58;;
22549;SDS011;11441;57.164;-2.120;2023-02-04T14:02:39;3.90;;;1.02;;
22549;SDS011;11441;57.164;-2.120;2023-02-04T14:05:08;9.35;;;1.40;;
22549;SDS011;11441;57.164;-2.120;2023-02-04T14:07:35;7.45;;;1.38;;
22549;SDS011;11441;57.164;-2.120;2023-02-04T14:10:02;6.50;;;1.45;;
22549;SDS011;11441;57.164;-2.120;2023-02-04T14:12:29;4.63;;;1.02;;
22549;SDS011;11441;57.164;-2.120;2023-02-04T14:14:55;6.78;;;0.90;;
22549;SDS011;11441;57.164;-2.120;2023-02-04T14:17:22;3.17;;;0.80;;
22549;SDS011;11441;57.164;-2.120;2023-02-04T14:19:49;6.05;;;1.10;;
22549;SDS011;11441;57.164;-2.120;2023-02-04T14:22:16;4.28;;;1.25;;
22549;SDS011;11441;57.164;-2.120;2023-02-04T14:24:43;4.05;;;1.20;;
22549;SDS011;11441;57.164;-2.120;2023-02-04T14:27:10;3.70;;;1.08;;
22549;SDS011;11441;57.164;-2.120;2023-02-04T14:29:37;5.55;;;1.17;;
22549;SDS011;11441;57.164;-2.120;2023-02-04T14:32:03;3.35;;;0.90;;
22549;SDS011;11441;57.164;-2.120;2023-02-04T14:34:30;0.95;;;0.45;;
22549;SDS011;11441;57.164;-2.120;2023-02-04T14:36:57;2.58;;;0.50;;
22549;SDS011;11441;57.164;-2.120;2023-02-04T14:39:24;4.38;;;0.90;;
22549;SDS011;11441;57.164;-2.120;2023-02-04T14:41:51;7.05;;;1.38;;
22549;SDS011;11441;57.164;-2.120;2023-02-04T14:44:18;6.10;;;0.90;;
22549;SDS011;11441;57.164;-2.120;2023-02-04T14:46:46;7.25;;;1.35;;
22549;SDS011;11441;57.164;-2.120;2023-02-04T14:49:14;3.63;;;1.13;;
22549;SDS011;11441;57.164;-2.120;2023-02-04T14:51:42;3.70;;;0.70;;
22549;SDS011;11441;57.164;-2.120;2023-02-04T14:54:09;2.95;;;0.93;;
22549;SDS011;11441;57.164;-2.120;2023-02-04T14:56:35;3.65;;;0.77;;
22549;SDS011;11441;57.164;-2.120;2023-02-04T14:59:02;3.60;;;0.95;;
22549;SDS011;11441;57.164;-2.120;2023-02-04T15:01:29;4.82;;;1.27;;
22549;SDS011;11441;57.164;-2.120;2023-02-04T15:04:14;4.00;;;1.35;;
22549;SDS011;11441;57.164;-2.120;2023-02-04T15:06:43;2.70;;;1.40;;
22549;SDS011;11441;57.164;-2.120;2023-02-04T15:09:11;3.72;;;1.38;;
22549;SDS011;11441;57.164;-2.120;2023-02-04T15:11:38;5.47;;;1.00;;
22549;SDS011;11441;57.164;-2.120;2023-02-04T15:14:04;5.28;;;1.23;;
22549;SDS011;11441;57.164;-2.120;2023-02-04T15:16:31;2.40;;;1.00;;
22549;SDS011;11441;57.164;-2.120;2023-02-04T15:18:58;6.25;;;1.23;;